Time;durP1;ratioP1;P1;durP2;ratioP2;P2;SDS_P1;SDS_P2;PMS_P1;PMS_P2;Temp;Humidity;BMP_temperature;BMP_pressure;BME280_temperature;BME280_humidity;BME280_pressure;Samples;Min_cycle;Max_cycle;Signal;HPM_P1;HPM_P2
2021/01/01 00:00:33;;;;;;;91.27;43.00;;;;;;;-1.08;96.00;99773.36;3450082;83;98512;-81
2021/01/01 00:05:33;;;;;;;100.63;48.30;;;;;;;-1.03;95.90;99779.16;3466609;83;26424;-82
2021/01/01 00:10:34;;;;;;;93.97;46.10;;;;;;;-0.95;96.16;99771.59;3455601;83;98667;-81
2021/01/01 00:15:35;;;;;;;112.60;49.83;;;;;;;-0.99;95.92;99783.59;3473057;83;26441;-82
2021/01/01 00:20:41;;;;;;;101.27;49.07;;;;;;;-0.95;96.21;99775.11;3464307;83;98392;-82
2021/01/01 00:25:39;;;;;;;108.40;50.57;;;;;;;-0.88;95.99;99774.07;3470997;83;33739;-82
2021/01/01 00:30:40;;;;;;;90.67;42.60;;;;;;;-0.79;96.03;99782.98;3461158;83;98674;-82
2021/01/01 00:35:41;;;;;;;98.93;47.70;;;;;;;-0.68;95.76;99780.74;3464579;83;33558;-82
2021/01/01 00:40:42;;;;;;;85.63;42.17;;;;;;;-0.66;95.70;99782.59;3463761;83;98561;-82
2021/01/01 00:45:43;;;;;;;96.33;44.20;;;;;;;-0.63;95.93;99787.34;3463927;83;33094;-82
2021/01/01 00:50:44;;;;;;;91.87;41.63;;;;;;;-0.56;95.92;99776.30;3458189;83;98868;-81
2021/01/01 00:55:45;;;;;;;82.25;37.55;;;;;;;-0.60;95.62;99775.91;3456009;83;31513;-81
2021/01/01 01:00:46;;;;;;;81.87;34.63;;;;;;;-0.61;95.87;99772.40;3452902;84;98432;-81
2021/01/01 01:05:47;;;;;;;78.57;33.87;;;;;;;-0.58;95.49;99774.48;3459990;83;27279;-82
2021/01/01 01:10:48;;;;;;;74.13;35.97;;;;;;;-0.62;95.57;99781.63;3455315;83;98177;-81
2021/01/01 01:15:49;;;;;;;79.83;35.13;;;;;;;-0.58;95.65;99773.13;3464283;83;27185;-82
2021/01/01 01:20:50;;;;;;;73.77;32.33;;;;;;;-0.50;95.63;99775.59;3458115;83;98137;-82
2021/01/01 01:25:51;;;;;;;67.53;30.50;;;;;;;-0.47;95.60;99773.58;3468984;84;31751;-81
2021/01/01 01:30:52;;;;;;;69.20;33.57;;;;;;;-0.54;95.37;99782.19;3455638;83;98636;-80
2021/01/01 01:35:54;;;;;;;70.20;30.00;;;;;;;-0.57;95.43;99780.66;3443587;84;49373;-82
2021/01/01 01:40:55;;;;;;;65.60;28.87;;;;;;;-0.51;95.41;99782.89;3458012;84;98502;-82
2021/01/01 01:45:56;;;;;;;65.40;29.57;;;;;;;-0.49;95.36;99789.33;3465347;83;31831;-82
2021/01/01 01:50:58;;;;;;;69.87;28.83;;;;;;;-0.41;95.38;99786.62;3459712;83;98100;-82
2021/01/01 01:56:00;;;;;;;68.50;29.40;;;;;;;-0.33;95.10;99792.55;3460525;83;31962;-82
2021/01/01 02:01:01;;;;;;;67.10;26.67;;;;;;;-0.33;94.66;99792.55;3455657;83;98340;-82
2021/01/01 02:06:03;;;;;;;64.07;27.83;;;;;;;-0.37;94.55;99793.76;3461839;83;31779;-81
2021/01/01 02:11:06;;;;;;;63.33;27.07;;;;;;;-0.55;94.62;99787.91;3442352;84;98411;-82
2021/01/01 02:16:09;;;;;;;60.50;25.83;;;;;;;-0.63;94.76;99785.44;3456509;83;31785;-82
2021/01/01 02:21:16;;;;;;;63.67;29.17;;;;;;;-0.67;95.12;99789.11;3462404;83;98525;-82
2021/01/01 02:26:16;;;;;;;;;;;;;;;-0.66;95.08;99793.40;3469573;83;25838;-82
2021/01/01 02:31:17;;;;;;;72.37;29.33;;;;;;;-0.66;95.01;99791.47;3451418;83;84367;-82
2021/01/01 02:36:18;;;;;;;59.03;25.07;;;;;;;-0.78;94.97;99795.37;3458465;83;31809;-82
2021/01/01 02:41:19;;;;;;;60.75;25.12;;;;;;;-0.69;95.11;99789.42;3456200;83;98796;-82
2021/01/01 02:46:20;;;;;;;63.10;26.10;;;;;;;-0.74;94.84;99782.02;3462109;83;30876;-82
2021/01/01 02:51:21;;;;;;;53.03;23.27;;;;;;;-0.74;95.04;99786.07;3451950;83;98375;-82
2021/01/01 02:56:22;;;;;;;57.60;24.03;;;;;;;-0.83;95.10;99788.00;3460790;83;25919;-82
2021/01/01 03:01:23;;;;;;;53.07;22.53;;;;;;;-0.80;95.47;99780.59;3450261;83;98315;-83
2021/01/01 03:06:24;;;;;;;62.63;26.73;;;;;;;-0.79;95.09;99777.58;3458754;83;25994;-83
2021/01/01 03:11:24;;;;;;;55.73;22.70;;;;;;;-0.82;95.16;99775.50;3455313;83;98434;-82
2021/01/01 03:16:25;;;;;;;56.00;22.10;;;;;;;-0.72;95.14;99769.78;3438220;83;35613;-82
2021/01/01 03:21:26;;;;;;;51.87;23.73;;;;;;;-0.82;95.10;99777.42;3452706;83;98395;-83
2021/01/01 03:26:28;;;;;;;52.30;24.20;;;;;;;-0.82;95.10;99777.42;3457933;84;35120;-82
2021/01/01 03:31:28;;;;;;;56.07;23.97;;;;;;;-0.84;95.03;99776.93;3456720;84;98592;-82
2021/01/01 03:36:29;;;;;;;56.13;24.10;;;;;;;-0.88;95.22;99771.95;3463684;83;35058;-81
2021/01/01 03:41:32;;;;;;;56.87;24.33;;;;;;;-0.98;95.39;99773.06;3464836;83;98474;-82
2021/01/01 03:46:32;;;;;;;58.20;22.97;;;;;;;-0.94;95.56;99766.47;3466990;83;35009;-82
2021/01/01 03:51:33;;;;;;;62.33;23.90;;;;;;;-0.86;95.53;99760.25;3455737;83;98579;-82
2021/01/01 03:56:34;;;;;;;55.83;23.17;;;;;;;-0.90;95.38;99745.79;3459693;83;35507;-83
2021/01/01 04:01:35;;;;;;;58.27;23.97;;;;;;;-0.94;95.34;99743.51;3455080;83;98494;-82
2021/01/01 04:06:36;;;;;;;57.70;24.60;;;;;;;-1.01;95.41;99744.52;3461843;83;33260;-81
2021/01/01 04:11:37;;;;;;;59.07;22.63;;;;;;;-0.94;95.51;99753.73;3458055;83;98385;-82
2021/01/01 04:16:45;;;;;;;49.23;22.17;;;;;;;-0.82;95.25;99761.22;3460022;83;32722;-81
2021/01/01 04:21:48;;;;;;;55.97;24.07;;;;;;;-0.90;95.00;99760.64;3465453;84;97944;-82
2021/01/01 04:26:49;;;;;;;59.60;23.27;;;;;;;-1.09;95.20;99765.57;3450149;83;98873;-83
2021/01/01 04:31:50;;;;;;;56.33;21.27;;;;;;;-1.16;95.53;99759.86;3460704;83;32733;-82
2021/01/01 04:36:51;;;;;;;52.47;23.60;;;;;;;-1.11;95.24;99764.53;3454575;83;98883;-82
2021/01/01 04:41:55;;;;;;;62.50;25.50;;;;;;;-1.05;95.40;99767.89;3464415;83;32671;-82
2021/01/01 04:46:56;;;;;;;61.47;23.27;;;;;;;-1.10;95.30;99763.98;3440803;84;100140;-83
2021/01/01 04:52:01;;;;;;;61.10;24.40;;;;;;;-1.08;95.35;99773.91;3450009;83;32931;-83
2021/01/01 04:57:02;;;;;;;57.43;24.30;;;;;;;-1.01;95.49;99778.27;3457370;83;98512;-83
2021/01/01 05:02:03;;;;;;;64.60;24.60;;;;;;;-1.10;95.25;99774.79;3452324;84;32771;-83
2021/01/01 05:07:04;;;;;;;56.17;21.27;;;;;;;-1.10;95.60;99780.19;3443752;83;98758;-82
2021/01/01 05:12:08;;;;;;;55.92;22.80;;;;;;;-1.09;95.48;99770.40;3459185;83;32725;-82
2021/01/01 05:17:10;;;;;;;55.50;22.73;;;;;;;-1.13;95.35;99771.35;3445422;83;98781;-82
2021/01/01 05:22:12;;;;;;;51.40;21.87;;;;;;;-1.19;95.53;99777.48;3455375;83;32767;-82
2021/01/01 05:27:16;;;;;;;50.52;18.52;;;;;;;-1.14;95.71;99773.28;3456063;83;98671;-82
2021/01/01 05:32:28;;;;;;;52.37;21.73;;;;;;;-1.03;95.71;99783.20;3462042;84;32746;-83
2021/01/01 05:37:35;;;;;;;50.00;19.02;;;;;;;-0.93;95.46;99789.08;3463197;84;98507;-83
2021/01/01 05:42:37;;;;;;;54.53;22.63;;;;;;;-0.93;95.19;99793.13;3461085;83;32729;-83
2021/01/01 05:47:38;;;;;;;50.98;21.10;;;;;;;-0.94;95.08;99798.88;3451518;83;98683;-82
2021/01/01 05:52:39;;;;;;;53.10;22.57;;;;;;;-1.01;95.01;99806.62;3460225;84;32705;-83
2021/01/01 05:57:40;;;;;;;46.67;17.80;;;;;;;-0.89;95.02;99802.77;3459174;83;98552;-82
2021/01/01 06:02:42;;;;;;;51.87;19.27;;;;;;;-0.91;94.68;99799.58;3455384;83;33181;-82
2021/01/01 06:07:43;;;;;;;59.50;23.60;;;;;;;-1.02;94.42;99800.98;3452514;83;98509;-80
2021/01/01 06:12:49;;;;;;;59.93;23.70;;;;;;;-1.12;94.83;99799.94;3460147;83;33182;-82
2021/01/01 06:17:53;;;;;;;53.28;23.32;;;;;;;-0.98;95.17;99803.30;3438747;84;98667;-83
2021/01/01 06:23:03;;;;;;;58.10;23.50;;;;;;;-0.86;94.80;99797.53;3455403;83;32754;-82
2021/01/01 06:28:04;;;;;;;52.60;22.45;;;;;;;-0.88;94.33;99793.55;3451850;84;98686;-82
2021/01/01 06:33:07;;;;;;;49.20;19.80;;;;;;;-0.83;94.56;99803.63;3454504;83;32738;-82
2021/01/01 06:38:08;;;;;;;56.50;22.97;;;;;;;-0.83;94.26;99799.58;3454647;83;98695;-81
2021/01/01 06:43:09;;;;;;;52.80;21.57;;;;;;;-0.81;94.43;99804.67;3457620;83;33708;-83
2021/01/01 06:48:24;;;;;;;56.50;23.13;;;;;;;-1.01;93.89;99799.33;3444903;83;98902;-82
2021/01/01 06:53:30;;;;;;;54.67;21.53;;;;;;;-1.10;94.26;99797.73;3462858;83;32694;-82
2021/01/01 06:58:31;;;;;;;44.40;17.20;;;;;;;-1.08;94.76;99800.36;3445091;83;98502;-83
2021/01/01 07:03:37;;;;;;;56.70;20.93;;;;;;;-1.08;94.56;99787.41;3465262;83;33301;-82
2021/01/01 07:08:44;;;;;;;50.75;18.70;;;;;;;-1.06;94.61;99795.43;3457745;83;98803;-82
2021/01/01 07:13:49;;;;;;;;;;;;;;;-1.06;94.52;99802.72;3460242;83;26255;-83
2021/01/01 07:18:53;;;;;;;50.37;19.17;;;;;;;-1.11;94.71;99798.85;3461305;83;84537;-82
2021/01/01 07:23:54;;;;;;;45.47;18.20;;;;;;;-1.24;94.48;99799.22;3466783;83;32699;-82
2021/01/01 07:28:58;;;;;;;52.87;19.77;;;;;;;-1.32;94.77;99795.93;3459059;84;98569;-82
2021/01/01 07:34:08;;;;;;;51.53;20.83;;;;;;;-1.36;94.92;99796.34;3461395;83;32667;-82
2021/01/01 07:39:09;;;;;;;50.33;20.82;;;;;;;-1.33;94.98;99800.28;3461879;83;98537;-82
2021/01/01 07:44:10;;;;;;;58.07;22.17;;;;;;;-1.19;95.21;99806.36;3462147;83;32650;-83
2021/01/01 07:49:11;;;;;;;51.13;20.70;;;;;;;-1.23;95.09;99798.64;3454233;84;98328;-83
2021/01/01 07:54:12;;;;;;;53.97;21.80;;;;;;;-1.16;95.32;99803.83;3460571;83;33616;-82
2021/01/01 07:59:14;;;;;;;54.63;20.50;;;;;;;-1.22;95.06;99802.39;3461921;81;98320;-83
2021/01/01 08:04:17;;;;;;;62.77;23.50;;;;;;;-1.23;95.30;99805.39;3460824;84;32821;-82
2021/01/01 08:09:18;;;;;;;66.37;26.40;;;;;;;-1.23;95.43;99803.50;3460569;83;98739;-83
2021/01/01 08:14:20;;;;;;;61.10;24.23;;;;;;;-1.14;95.45;99807.56;3466381;83;33964;-83
2021/01/01 08:19:24;;;;;;;61.17;23.97;;;;;;;-1.18;95.53;99807.95;3457332;83;98504;-82
2021/01/01 08:24:28;;;;;;;57.40;21.73;;;;;;;-1.13;95.69;99806.45;3451607;83;32734;-83
2021/01/01 08:29:30;;;;;;;55.55;21.68;;;;;;;-1.04;95.54;99812.09;3461092;83;98562;-83
2021/01/01 08:34:31;;;;;;;63.53;25.70;;;;;;;-1.12;95.35;99818.30;3465203;83;33207;-83
2021/01/01 08:39:32;;;;;;;62.00;24.83;;;;;;;-1.01;95.52;99808.78;3459585;83;98519;-82
2021/01/01 08:44:35;;;;;;;63.20;25.13;;;;;;;-0.85;95.32;99809.91;3466955;84;32723;-83
2021/01/01 08:49:35;;;;;;;62.37;24.63;;;;;;;-0.78;94.89;99814.28;3458737;83;98484;-83
2021/01/01 08:54:37;;;;;;;64.77;25.27;;;;;;;-0.70;94.98;99818.91;3462864;84;32843;-82
2021/01/01 08:59:38;;;;;;;64.03;26.03;;;;;;;-0.63;94.89;99818.41;3454563;83;98833;-82
2021/01/01 09:04:40;;;;;;;67.17;27.27;;;;;;;-0.59;94.37;99820.73;3462870;83;32806;-83
2021/01/01 09:09:43;;;;;;;68.70;28.02;;;;;;;-0.61;94.43;99835.90;3457397;83;98414;-82
2021/01/01 09:14:55;;;;;;;75.57;30.70;;;;;;;-0.59;94.07;99831.53;3451689;83;32687;-82
2021/01/01 09:20:09;;;;;;;78.20;29.70;;;;;;;-0.74;93.95;99834.70;3457037;84;98336;-82
2021/01/01 09:25:25;;;;;;;95.60;31.90;;;;;;;-0.87;94.09;99845.10;3462987;83;32635;-83
2021/01/01 09:30:32;;;;;;;69.73;30.90;;;;;;;-0.74;94.45;99846.86;3451256;83;98497;-82
2021/01/01 09:35:33;;;;;;;66.90;27.07;;;;;;;-0.70;94.25;99844.58;3462993;83;32700;-83
2021/01/01 09:40:35;;;;;;;70.67;30.30;;;;;;;-0.73;93.93;99850.59;3455722;83;98128;-82
2021/01/01 09:45:37;;;;;;;90.13;38.53;;;;;;;-0.73;94.05;99851.17;3455249;83;33406;-82
2021/01/01 09:50:38;;;;;;;100.53;39.42;;;;;;;-0.67;94.11;99851.25;3456932;83;98532;-82
2021/01/01 09:55:39;;;;;;;73.40;32.13;;;;;;;-0.59;93.87;99872.06;3462559;84;32774;-82
2021/01/01 10:00:40;;;;;;;91.27;37.03;;;;;;;-0.69;93.63;99871.83;3458071;83;98558;-82
2021/01/01 10:05:41;;;;;;;62.20;26.13;;;;;;;-0.61;93.90;99875.08;3458797;83;32763;-82
2021/01/01 10:10:45;;;;;;;69.70;29.13;;;;;;;-0.55;93.67;99871.11;3458593;83;98464;-82
2021/01/01 10:15:46;;;;;;;77.10;32.57;;;;;;;-0.43;93.78;99869.14;3465704;83;32688;-83
2021/01/01 10:20:48;;;;;;;56.37;24.63;;;;;;;-0.41;93.62;99867.70;3456355;84;98478;-82
2021/01/01 10:25:50;;;;;;;63.13;24.20;;;;;;;-0.32;93.46;99883.92;3456202;84;32666;-83
2021/01/01 10:30:51;;;;;;;71.97;28.87;;;;;;;-0.28;93.17;99876.78;3452762;83;98478;-83
2021/01/01 10:35:52;;;;;;;77.33;28.43;;;;;;;-0.27;93.04;99878.36;3458355;83;32648;-82
2021/01/01 10:40:53;;;;;;;71.43;26.00;;;;;;;-0.24;92.99;99870.98;3450953;84;98372;-82
2021/01/01 10:45:53;;;;;;;66.47;28.47;;;;;;;-0.20;92.84;99868.66;3453354;84;33398;-82
2021/01/01 10:50:54;;;;;;;67.93;26.60;;;;;;;-0.22;92.79;99864.11;3452896;83;100156;-82
2021/01/01 10:55:55;;;;;;;65.07;26.83;;;;;;;-0.18;92.61;99853.47;3462580;83;32362;-82
2021/01/01 11:00:56;;;;;;;68.47;28.07;;;;;;;-0.27;92.76;99845.91;3449667;83;98408;-82
2021/01/01 11:05:57;;;;;;;63.33;26.80;;;;;;;-0.17;92.94;99841.77;3456110;83;33228;-82
2021/01/01 11:10:58;;;;;;;70.57;28.57;;;;;;;-0.16;92.53;99839.30;3455228;83;98548;-82
2021/01/01 12:25:01;;;;;;;63.43;24.93;;;;;;;0.00;91.51;99826.09;3454355;83;26487;-81
2021/01/01 12:30:06;;;;;;;61.53;25.73;;;;;;;0.08;91.56;99826.61;3452576;84;98570;-82
2021/01/01 12:35:09;;;;;;;73.87;30.10;;;;;;;0.04;90.82;99841.88;3442997;83;27535;-83
2021/01/01 12:40:11;;;;;;;65.50;29.80;;;;;;;0.00;90.93;99835.55;3443241;83;97999;-81
2021/01/01 12:45:14;;;;;;;69.63;29.77;;;;;;;0.03;91.15;99845.16;3461130;83;28255;-82
2021/01/01 12:50:15;;;;;;;69.73;30.70;;;;;;;0.05;90.87;99849.69;3448046;83;98637;-82
2021/01/01 12:55:16;;;;;;;69.23;29.30;;;;;;;0.04;91.17;99848.10;3458742;83;27620;-83
2021/01/01 13:00:19;;;;;;;75.93;30.60;;;;;;;-0.01;91.00;99851.52;3446044;82;98286;-82
2021/01/01 13:05:20;;;;;;;144.90;53.63;;;;;;;0.05;91.42;99834.00;3461919;83;27548;-82
2021/01/01 13:10:21;;;;;;;102.27;42.47;;;;;;;0.15;91.35;99839.08;3456598;83;98512;-82
2021/01/01 13:15:22;;;;;;;93.50;35.70;;;;;;;0.20;91.21;99841.06;3458442;83;26283;-81
2021/01/01 13:20:23;;;;;;;96.50;40.03;;;;;;;0.23;91.12;99829.58;3464885;84;98330;-82
2021/01/01 13:25:24;;;;;;;84.47;36.43;;;;;;;0.31;91.27;99838.24;3466833;83;25958;-82
2021/01/01 13:30:25;;;;;;;84.47;36.60;;;;;;;0.31;90.96;99837.44;3455457;83;98357;-82
2021/01/01 13:35:27;;;;;;;60.67;27.60;;;;;;;0.23;91.01;99843.11;3461826;83;26190;-82
2021/01/01 13:40:28;;;;;;;63.87;29.17;;;;;;;0.23;90.84;99846.39;3449771;83;98347;-82
2021/01/01 13:45:29;;;;;;;60.10;29.27;;;;;;;0.21;91.00;99841.84;3469668;84;26399;-82
2021/01/01 13:50:30;;;;;;;61.73;27.33;;;;;;;0.27;91.02;99846.77;3453974;84;98216;-83
2021/01/01 13:55:30;;;;;;;60.90;24.67;;;;;;;0.23;90.75;99840.98;3465375;83;26212;-82
2021/01/01 14:00:31;;;;;;;68.33;26.47;;;;;;;0.19;90.79;99846.24;3457917;83;98245;-82
2021/01/01 14:05:32;;;;;;;63.90;27.23;;;;;;;0.27;90.81;99868.41;3483990;81;26468;-82
2021/01/01 14:10:33;;;;;;;55.83;26.63;;;;;;;0.28;90.74;99863.81;3481173;82;98420;-83
2021/01/01 14:15:34;;;;;;;69.30;30.17;;;;;;;0.26;90.52;99876.84;3515236;82;33347;-83
2021/01/01 14:20:36;;;;;;;70.00;28.93;;;;;;;0.21;90.42;99877.82;3482364;82;98371;-82
2021/01/01 14:25:43;;;;;;;74.00;27.83;;;;;;;0.16;90.45;99875.28;3475062;83;33312;-82
2021/01/01 14:30:44;;;;;;;80.90;36.73;;;;;;;0.16;90.67;99886.11;3481806;83;98351;-82
2021/01/01 14:35:45;;;;;;;77.03;35.27;;;;;;;0.19;90.65;99892.24;3481404;82;33820;-83
2021/01/01 14:40:47;;;;;;;73.78;30.77;;;;;;;0.21;90.57;99890.00;3480874;82;98250;-83
2021/01/01 14:45:48;;;;;;;70.67;29.17;;;;;;;0.18;90.70;99884.44;3482028;83;33769;-83
2021/01/01 14:50:49;;;;;;;69.23;30.63;;;;;;;0.21;90.85;99891.89;3486808;83;98097;-82
2021/01/01 14:55:51;;;;;;;71.00;30.03;;;;;;;0.19;90.73;99885.48;3487870;82;33802;-82
2021/01/01 15:00:52;;;;;;;74.47;28.97;;;;;;;0.13;90.85;99879.97;3478133;82;98213;-83
2021/01/01 15:05:53;;;;;;;71.13;28.73;;;;;;;0.19;91.02;99888.18;3484468;82;34280;-82
2021/01/01 15:10:54;;;;;;;66.43;28.30;;;;;;;0.24;90.93;99889.33;3481209;83;98367;-83
2021/01/01 15:15:55;;;;;;;66.67;28.43;;;;;;;0.30;90.66;99894.03;3482990;83;33299;-82
2021/01/01 15:20:56;;;;;;;70.30;29.67;;;;;;;0.31;90.89;99899.68;3478563;83;98337;-82
2021/01/01 15:25:57;;;;;;;82.20;36.87;;;;;;;0.31;90.71;99895.62;3487908;83;33486;-83
2021/01/01 15:30:58;;;;;;;81.37;34.43;;;;;;;0.35;90.79;99900.09;3483418;83;98231;-81
2021/01/01 15:35:59;;;;;;;68.73;30.83;;;;;;;0.28;90.75;99903.82;3489658;82;29583;-81
2021/01/01 15:41:00;;;;;;;75.83;33.87;;;;;;;0.22;90.83;99902.98;3484685;82;98493;-82
2021/01/01 15:46:01;;;;;;;126.27;52.73;;;;;;;0.22;90.97;99896.98;3462883;83;26545;-82
2021/01/01 15:51:03;;;;;;;106.17;48.70;;;;;;;0.29;91.08;99897.86;3476646;83;98088;-83
2021/01/01 15:56:05;;;;;;;124.70;52.63;;;;;;;0.33;91.13;99894.18;3469680;83;31787;-82
2021/01/01 16:01:06;;;;;;;157.47;70.10;;;;;;;0.34;91.02;99886.29;3477530;83;98125;-82
2021/01/01 16:06:08;;;;;;;78.43;34.43;;;;;;;0.30;91.04;99893.48;3462558;83;32331;-82
2021/01/01 16:11:09;;;;;;;85.97;36.00;;;;;;;0.29;90.98;99904.63;3452239;83;98211;-82
2021/01/01 16:16:10;;;;;;;81.20;32.67;;;;;;;0.24;90.98;99900.73;3469227;84;32283;-83
2021/01/01 16:21:11;;;;;;;137.70;56.30;;;;;;;0.28;91.20;99899.76;3458356;83;98369;-83
2021/01/01 16:26:12;;;;;;;193.60;74.33;;;;;;;0.34;91.21;99912.58;3466861;83;31898;-83
2021/01/01 16:31:12;;;;;;;79.53;31.93;;;;;;;0.34;91.14;99906.59;3458742;83;98392;-83
2021/01/01 16:36:30;;;;;;;86.03;35.97;;;;;;;0.35;91.20;99916.33;3465732;83;31902;-82
2021/01/01 16:41:42;;;;;;;90.62;38.28;;;;;;;0.37;91.21;99915.44;3456798;83;98097;-82
2021/01/01 16:46:48;;;;;;;93.20;37.00;;;;;;;0.35;91.14;99915.52;3467446;83;31781;-81
2021/01/01 16:51:51;;;;;;;89.70;38.33;;;;;;;0.35;91.29;99906.85;3460332;83;26347;-81
2021/01/01 16:56:56;;;;;;;90.10;35.33;;;;;;;0.36;91.35;99907.08;3458663;83;98334;-82
2021/01/01 17:01:57;;;;;;;121.33;56.83;;;;;;;0.37;91.30;99911.92;3464189;84;31767;-82
2021/01/01 17:07:03;;;;;;;188.77;84.53;;;;;;;0.40;91.36;99922.89;3487963;82;98526;-82
2021/01/01 17:12:04;;;;;;;98.70;42.83;;;;;;;0.39;91.34;99921.88;3467664;82;32826;-82
2021/01/01 17:17:05;;;;;;;88.93;35.37;;;;;;;0.42;91.56;99932.05;3405042;85;98899;-82
2021/01/01 17:22:06;;;;;;;87.30;34.13;;;;;;;0.42;91.47;99929.34;3375069;86;32764;-81
2021/01/01 17:27:08;;;;;;;108.63;43.28;;;;;;;0.39;91.51;99924.59;3367536;85;98481;-82
2021/01/01 17:32:09;;;;;;;90.33;34.37;;;;;;;0.32;91.71;99933.73;3369007;85;31839;-82
2021/01/01 17:37:10;;;;;;;95.13;39.20;;;;;;;0.37;91.83;99935.73;3369801;85;98276;-82
2021/01/01 17:42:11;;;;;;;95.27;37.83;;;;;;;0.43;92.02;99935.80;3372177;85;31979;-83
2021/01/01 17:47:12;;;;;;;92.13;37.77;;;;;;;0.45;91.97;99940.31;3363501;85;98267;-82
2021/01/01 17:52:12;;;;;;;100.90;39.77;;;;;;;0.57;91.97;99955.91;3369045;85;30294;-82
2021/01/01 17:57:13;;;;;;;102.17;41.15;;;;;;;0.63;91.88;99956.78;3366383;85;98529;-82
2021/01/01 18:02:14;;;;;;;105.17;38.50;;;;;;;0.62;91.79;99951.10;3372085;85;27085;-83
2021/01/01 18:07:15;;;;;;;97.03;38.77;;;;;;;0.59;91.85;99959.88;3374021;84;98703;-82
2021/01/01 18:12:18;;;;;;;97.80;38.63;;;;;;;0.58;91.92;99953.43;3385938;84;26105;-83
2021/01/01 18:17:19;;;;;;;97.50;40.87;;;;;;;0.52;92.00;99959.59;3376620;84;98303;-82
2021/01/01 18:22:20;;;;;;;94.70;36.63;;;;;;;0.58;92.17;99965.61;3386690;84;35122;-82
2021/01/01 18:27:21;;;;;;;118.85;46.92;;;;;;;0.63;92.23;99973.57;3377196;84;98612;-81
2021/01/01 18:32:27;;;;;;;93.10;36.60;;;;;;;0.73;92.06;99983.48;3376873;84;35041;-82
2021/01/01 18:37:30;;;;;;;99.50;39.00;;;;;;;0.79;92.13;99986.28;3378550;84;98450;-83
2021/01/01 18:42:33;;;;;;;95.13;37.57;;;;;;;0.87;91.97;99980.03;3381414;85;35064;-82
2021/01/01 18:47:34;;;;;;;99.60;36.60;;;;;;;0.92;92.04;99991.24;3370864;84;98167;-81
2021/01/01 18:52:35;;;;;;;93.23;36.43;;;;;;;0.89;91.74;99999.45;3383983;86;35686;-80
2021/01/01 18:57:41;;;;;;;88.80;37.10;;;;;;;0.85;91.81;100002.59;3376643;84;98372;-81
2021/01/01 19:02:59;;;;;;;90.57;39.87;;;;;;;0.88;91.94;99998.45;3383159;84;26638;-81
2021/01/01 19:08:04;;;;;;;111.00;45.67;;;;;;;0.93;91.91;100005.05;3393907;85;98417;-81
2021/01/01 19:13:09;;;;;;;100.30;42.83;;;;;;;0.92;91.93;99997.47;3484741;83;35069;-81
2021/01/01 19:18:13;;;;;;;105.13;43.30;;;;;;;0.93;91.92;99999.63;3480660;83;98687;-82
2021/01/01 19:23:26;;;;;;;110.67;45.00;;;;;;;0.95;91.82;100005.51;3484262;83;35495;-82
2021/01/01 19:28:29;;;;;;;100.80;40.13;;;;;;;0.92;91.87;100006.95;3470633;82;98763;-82
2021/01/01 19:33:51;;;;;;;104.50;40.13;;;;;;;0.92;91.87;100015.08;3461270;82;35071;-82
2021/01/01 19:39:15;;;;;;;100.97;41.15;;;;;;;0.98;92.01;100017.03;3476792;83;98495;-83
2021/01/01 19:44:45;;;;;;;106.13;40.10;;;;;;;1.07;92.00;100024.59;3446781;83;35101;-84
2021/01/01 19:50:07;;;;;;;110.33;44.37;;;;;;;1.22;91.95;100032.20;3458250;82;98717;-84
2021/01/01 19:55:23;;;;;;;101.40;42.73;;;;;;;1.30;91.85;100039.48;3487645;82;35099;-84
2021/01/01 20:00:45;;;;;;;106.15;43.75;;;;;;;1.26;91.48;100046.70;3479038;82;98322;-83
2021/01/01 20:05:47;;;;;;;117.00;45.40;;;;;;;1.16;91.49;100056.53;3499016;82;35593;-84
2021/01/01 20:10:50;;;;;;;117.55;47.05;;;;;;;1.14;91.74;100058.75;3514386;81;98582;-82
2021/01/01 20:15:58;;;;;;;117.03;45.73;;;;;;;1.13;91.81;100063.39;3513829;81;35542;-83
2021/01/01 20:21:09;;;;;;;124.42;48.05;;;;;;;1.27;91.91;100071.32;3507576;81;98658;-81
2021/01/01 20:26:10;;;;;;;115.47;44.47;;;;;;;1.32;91.77;100069.80;3526608;81;35544;-82
2021/01/01 20:31:14;;;;;;;113.10;43.97;;;;;;;1.32;91.63;100072.50;3521101;81;98639;-84
2021/01/01 20:36:23;;;;;;;106.17;41.57;;;;;;;1.30;91.49;100083.66;3522578;81;35134;-82
2021/01/01 20:41:32;;;;;;;95.13;40.70;;;;;;;1.24;91.63;100080.09;3522787;81;98316;-82
2021/01/01 20:57:11;;;;;;;99.50;41.60;;;;;;;1.30;91.88;100098.58;3523229;81;98657;-82
2021/01/01 21:02:13;;;;;;;106.87;43.07;;;;;;;1.42;91.82;100109.53;3529566;81;35068;-83
2021/01/01 21:08:10;;;;;;;102.22;41.05;;;;;;;1.50;91.78;100110.08;3452896;82;98738;-81
2021/01/01 21:13:48;;;;;;;99.60;40.47;;;;;;;1.49;91.47;100118.53;3427890;85;35155;-82
2021/01/01 21:19:15;;;;;;;104.70;40.23;;;;;;;1.45;91.59;100118.94;3415802;84;98603;-80
2021/01/01 21:25:02;;;;;;;95.62;40.10;;;;;;;1.48;91.59;100113.66;3417336;83;26304;-81
2021/01/01 21:30:58;;;;;;;96.27;40.70;;;;;;;1.55;91.67;100115.33;3409504;83;98740;-81
2021/01/01 21:36:16;;;;;;;99.33;39.67;;;;;;;1.55;91.56;100130.24;3419281;83;35061;-82
2021/01/01 21:41:59;;;;;;;110.20;44.17;;;;;;;1.60;91.67;100125.97;3414050;83;98413;-82
2021/01/01 21:47:42;;;;;;;98.67;41.60;;;;;;;1.60;91.51;100125.19;3421173;83;98722;-83
2021/01/01 21:52:44;;;;;;;98.63;39.77;;;;;;;1.55;91.45;100133.50;3381916;83;35149;-83
2021/01/01 21:57:45;;;;;;;91.92;36.42;;;;;;;1.55;91.55;100130.24;3419704;83;98355;-84
2021/01/01 22:02:48;;;;;;;92.47;35.83;;;;;;;1.63;91.55;100142.16;3422036;84;35019;-84
2021/01/01 22:07:49;;;;;;;99.70;38.07;;;;;;;1.72;91.59;100145.64;3474816;82;98284;-84
2021/01/01 22:12:50;;;;;;;83.97;38.43;;;;;;;1.83;91.30;100149.03;3503368;82;34998;-83
2021/01/01 22:17:51;;;;;;;91.33;36.97;;;;;;;1.79;90.99;100141.85;3485994;82;98680;-84
2021/01/01 22:22:51;;;;;;;91.27;41.47;;;;;;;1.75;91.00;100139.58;3483826;82;35098;-84
2021/01/01 22:27:52;;;;;;;97.27;41.07;;;;;;;1.73;90.85;100157.53;3492936;82;98736;-84
2021/01/01 22:32:54;;;;;;;100.27;41.70;;;;;;;1.65;90.88;100164.34;3504208;82;35044;-84
2021/01/01 22:37:55;;;;;;;93.40;38.70;;;;;;;1.56;91.03;100168.98;3492609;82;98670;-85
2021/01/01 22:42:56;;;;;;;92.10;37.57;;;;;;;1.54;91.22;100175.30;3493660;82;35563;-83
2021/01/01 22:47:57;;;;;;;84.83;38.43;;;;;;;1.54;91.31;100171.23;3494841;82;98353;-84
2021/01/01 22:52:58;;;;;;;89.65;37.88;;;;;;;1.60;91.45;100165.30;3494737;83;35007;-84
2021/01/01 22:58:04;;;;;;;86.27;36.77;;;;;;;1.63;91.34;100166.56;3487620;82;98589;-83
2021/01/01 23:03:06;;;;;;;91.37;40.27;;;;;;;1.69;91.46;100163.94;3501549;82;26445;-85
2021/01/01 23:08:07;;;;;;;89.37;36.07;;;;;;;1.71;91.21;100190.95;3436406;82;98740;-85
2021/01/01 23:13:09;;;;;;;88.27;36.63;;;;;;;1.57;91.30;100188.20;3401621;85;36005;-84
2021/01/01 23:18:19;;;;;;;82.40;38.90;;;;;;;1.50;91.49;100193.33;3403893;85;98656;-85
2021/01/01 23:23:22;;;;;;;87.57;36.47;;;;;;;1.49;91.69;100196.59;3423424;83;35069;-86
2021/01/01 23:28:58;;;;;;;92.00;38.00;;;;;;;1.47;91.71;100202.91;3418976;83;98898;-83
2021/01/01 23:34:41;;;;;;;86.87;35.27;;;;;;;1.47;91.99;100202.91;3428261;83;35071;-84
2021/01/01 23:40:05;;;;;;;88.13;36.77;;;;;;;1.48;92.01;100209.91;3420822;82;98616;-82
2021/01/01 23:45:08;;;;;;;82.77;32.97;;;;;;;1.43;92.09;100217.44;3423208;84;35000;-84
2021/01/01 23:50:11;;;;;;;82.07;31.80;;;;;;;1.43;92.23;100217.44;3412430;84;98463;-83
2021/01/01 23:55:12;;;;;;;78.03;32.40;;;;;;;1.39;92.32;100220.00;3428395;84;35036;-83
